LSP307 SCDA-SCEL
Flight info
| Callsign | LSP307 |
|---|---|
| Flight time | 1h 54m |
| Altitude | 35000 |
| Route | ENLUS5B ENLUS UQ803 SIMOK SIMOK7B |
| Aircraft | B739/M-SDE2E3FGHIRWXY/LB1 |
Departure
| Time | 2026-04-21 17:14 |
|---|---|
| Airport | Diego Aracena International Airport (SCDA) |
Arrival
| Time | 2026-04-21 19:08 |
|---|---|
| Airport | Comodoro Arturo Merino Benítez International Airport (SCEL) |
| Time | Latitude | Longitude | Altitude | Speed | Heading |
|---|---|---|---|---|---|
| 2026-04-21 16:59 | -20.54766 | -70.17935 | 173 ft | 0 kts | 95° |
| 2026-04-21 17:02 | -20.54765 | -70.17947 | 173 ft | 4 kts | 95° |
| 2026-04-21 17:03 | -20.54763 | -70.17976 | 173 ft | 4 kts | 91° |
| 2026-04-21 17:03 | -20.54763 | -70.18004 | 173 ft | 4 kts | 85° |
| 2026-04-21 17:03 | -20.54766 | -70.18032 | 174 ft | 3 kts | 78° |
| 2026-04-21 17:03 | -20.54767 | -70.18035 | 174 ft | 1 kts | 78° |
| 2026-04-21 17:06 | -20.54765 | -70.18031 | 174 ft | 3 kts | 66° |
| 2026-04-21 17:06 | -20.54722 | -70.18016 | 173 ft | 13 kts | 5° |
| 2026-04-21 17:06 | -20.54718 | -70.18016 | 173 ft | 14 kts | 4° |
| 2026-04-21 17:07 | -20.54625 | -70.18011 | 173 ft | 21 kts | 3° |
| 2026-04-21 17:07 | -20.54506 | -70.18058 | 174 ft | 0 kts | 328° |
| 2026-04-21 17:08 | -20.54500 | -70.18062 | 174 ft | 2 kts | 328° |
| 2026-04-21 17:08 | -20.54476 | -70.18079 | 174 ft | 6 kts | 326° |
| 2026-04-21 17:09 | -20.54366 | -70.18148 | 175 ft | 14 kts | 339° |
| 2026-04-21 17:09 | -20.54249 | -70.18166 | 174 ft | 21 kts | 1° |
| 2026-04-21 17:09 | -20.54080 | -70.18157 | 174 ft | 27 kts | 3° |
| 2026-04-21 17:10 | -20.53870 | -70.18146 | 174 ft | 33 kts | 2° |
| 2026-04-21 17:10 | -20.53622 | -70.18132 | 172 ft | 38 kts | 3° |
| 2026-04-21 17:10 | -20.53342 | -70.18117 | 173 ft | 42 kts | 3° |
| 2026-04-21 17:10 | -20.53034 | -70.18100 | 175 ft | 46 kts | 3° |
| 2026-04-21 17:11 | -20.52717 | -70.18082 | 174 ft | 45 kts | 3° |
| 2026-04-21 17:11 | -20.52417 | -70.18066 | 174 ft | 42 kts | 3° |
| 2026-04-21 17:11 | -20.52208 | -70.18054 | 173 ft | 14 kts | 360° |
| 2026-04-21 17:11 | -20.52130 | -70.18089 | 174 ft | 7 kts | 329° |
| 2026-04-21 17:12 | -20.52088 | -70.18108 | 174 ft | 7 kts | 347° |
| 2026-04-21 17:12 | -20.52044 | -70.18104 | 174 ft | 6 kts | 23° |
| 2026-04-21 17:12 | -20.52022 | -70.18066 | 174 ft | 6 kts | 92° |
| 2026-04-21 17:12 | -20.52054 | -70.18042 | 174 ft | 6 kts | 185° |
| 2026-04-21 17:13 | -20.52098 | -70.18047 | 174 ft | 7 kts | 184° |
| 2026-04-21 17:13 | -20.52349 | -70.18061 | 173 ft | 71 kts | 182° |
| 2026-04-21 17:13 | -20.53058 | -70.18100 | 175 ft | 130 kts | 182° |
| 2026-04-21 17:13 | -20.54124 | -70.18147 | 197 ft | 173 kts | 185° |
| 2026-04-21 17:14 | -20.55385 | -70.18200 | 650 ft | 182 kts | 185° |
| 2026-04-21 17:14 | -20.56633 | -70.18273 | 1496 ft | 176 kts | 185° |
| 2026-04-21 17:14 | -20.57822 | -70.18337 | 2362 ft | 175 kts | 185° |
| 2026-04-21 17:14 | -20.59151 | -70.18412 | 2630 ft | 207 kts | 185° |
| 2026-04-21 17:15 | -20.60701 | -70.18502 | 2809 ft | 237 kts | 185° |
| 2026-04-21 17:15 | -20.62435 | -70.18600 | 3130 ft | 261 kts | 184° |
| 2026-04-21 17:15 | -20.64262 | -70.18702 | 3850 ft | 269 kts | 184° |
| 2026-04-21 17:15 | -20.66135 | -70.18805 | 4717 ft | 272 kts | 184° |
| 2026-04-21 17:16 | -20.68062 | -70.18892 | 5397 ft | 281 kts | 182° |
| 2026-04-21 17:16 | -20.70030 | -70.18950 | 6195 ft | 284 kts | 182° |
| 2026-04-21 17:16 | -20.72017 | -70.18998 | 6973 ft | 287 kts | 182° |
| 2026-04-21 17:16 | -20.74020 | -70.19044 | 7807 ft | 287 kts | 182° |
| 2026-04-21 17:17 | -20.76013 | -70.19092 | 8626 ft | 286 kts | 181° |
| 2026-04-21 17:17 | -20.78015 | -70.19141 | 9405 ft | 288 kts | 181° |
| 2026-04-21 17:17 | -20.80028 | -70.19192 | 10127 ft | 291 kts | 181° |
| 2026-04-21 17:17 | -20.82099 | -70.19245 | 10481 ft | 309 kts | 181° |
| 2026-04-21 17:18 | -20.84323 | -70.19302 | 10637 ft | 330 kts | 181° |
| 2026-04-21 17:18 | -20.86692 | -70.19364 | 10780 ft | 350 kts | 181° |
| 2026-04-21 17:18 | -20.89174 | -70.19429 | 11069 ft | 363 kts | 181° |
| 2026-04-21 17:18 | -20.91720 | -70.19496 | 11559 ft | 368 kts | 181° |
| 2026-04-21 17:19 | -20.94288 | -70.19564 | 12160 ft | 370 kts | 181° |
| 2026-04-21 17:19 | -20.96843 | -70.19632 | 12724 ft | 373 kts | 181° |
| 2026-04-21 17:19 | -20.99462 | -70.19702 | 13256 ft | 378 kts | 181° |
| 2026-04-21 17:19 | -21.02109 | -70.19772 | 13787 ft | 382 kts | 181° |
| 2026-04-21 17:20 | -21.04779 | -70.19843 | 14280 ft | 386 kts | 181° |
| 2026-04-21 17:20 | -21.07481 | -70.19915 | 14693 ft | 392 kts | 181° |
| 2026-04-21 17:20 | -21.10223 | -70.19988 | 15105 ft | 397 kts | 181° |
| 2026-04-21 17:20 | -21.13000 | -70.20062 | 15582 ft | 400 kts | 181° |
| 2026-04-21 17:21 | -21.15799 | -70.20136 | 16026 ft | 403 kts | 181° |
| 2026-04-21 17:21 | -21.18610 | -70.20211 | 16504 ft | 406 kts | 181° |
| 2026-04-21 17:21 | -21.21462 | -70.20287 | 16886 ft | 411 kts | 181° |
| 2026-04-21 17:21 | -21.24316 | -70.20363 | 17454 ft | 410 kts | 182° |
| 2026-04-21 17:22 | -21.26210 | -70.20413 | 17756 ft | 413 kts | 182° |
| 2026-04-21 17:22 | -21.30086 | -70.20516 | 18242 ft | 419 kts | 182° |
| 2026-04-21 17:22 | -21.32977 | -70.20594 | 18598 ft | 422 kts | 182° |
| 2026-04-21 17:22 | -21.35919 | -70.20672 | 18982 ft | 424 kts | 182° |
| 2026-04-21 17:23 | -21.38871 | -70.20751 | 19385 ft | 425 kts | 182° |
| 2026-04-21 17:23 | -21.41831 | -70.20830 | 19767 ft | 427 kts | 182° |
| 2026-04-21 17:23 | -21.44806 | -70.20909 | 20136 ft | 429 kts | 183° |
| 2026-04-21 17:23 | -21.47803 | -70.20989 | 20502 ft | 431 kts | 183° |
| 2026-04-21 17:24 | -21.50809 | -70.21070 | 20876 ft | 433 kts | 183° |
| 2026-04-21 17:24 | -21.53828 | -70.21151 | 21237 ft | 435 kts | 183° |
| 2026-04-21 17:24 | -21.56859 | -70.21232 | 21596 ft | 437 kts | 184° |
| 2026-04-21 17:24 | -21.59907 | -70.21313 | 21936 ft | 439 kts | 184° |
| 2026-04-21 17:25 | -21.62970 | -70.21395 | 22276 ft | 441 kts | 184° |
| 2026-04-21 17:25 | -21.66043 | -70.21478 | 22630 ft | 443 kts | 184° |
| 2026-04-21 17:25 | -21.69128 | -70.21560 | 22976 ft | 444 kts | 184° |
| 2026-04-21 17:25 | -21.72227 | -70.21643 | 23318 ft | 446 kts | 184° |
| 2026-04-21 17:26 | -21.75338 | -70.21726 | 23634 ft | 448 kts | 185° |
| 2026-04-21 17:26 | -21.78465 | -70.21810 | 23902 ft | 450 kts | 185° |
| 2026-04-21 17:26 | -21.81607 | -70.21894 | 24149 ft | 452 kts | 185° |
| 2026-04-21 17:26 | -21.84764 | -70.21979 | 24390 ft | 454 kts | 185° |
| 2026-04-21 17:27 | -21.87890 | -70.22063 | 24647 ft | 456 kts | 185° |
| 2026-04-21 17:27 | -21.91065 | -70.22220 | 24872 ft | 457 kts | 189° |
| 2026-04-21 17:27 | -21.94222 | -70.22627 | 25098 ft | 457 kts | 192° |
| 2026-04-21 17:27 | -21.97373 | -70.23157 | 25335 ft | 459 kts | 193° |
| 2026-04-21 17:28 | -22.00527 | -70.23724 | 25566 ft | 460 kts | 194° |
| 2026-04-21 17:28 | -22.03698 | -70.24290 | 25789 ft | 463 kts | 193° |
| 2026-04-21 17:28 | -22.06887 | -70.24838 | 26012 ft | 465 kts | 193° |
| 2026-04-21 17:28 | -22.10093 | -70.25369 | 26235 ft | 467 kts | 193° |
| 2026-04-21 17:29 | -22.13314 | -70.25888 | 26457 ft | 469 kts | 193° |
| 2026-04-21 17:29 | -22.16553 | -70.26401 | 26670 ft | 471 kts | 193° |
| 2026-04-21 17:29 | -22.19800 | -70.26911 | 26886 ft | 473 kts | 193° |
| 2026-04-21 17:29 | -22.23066 | -70.27424 | 27089 ft | 475 kts | 193° |
| 2026-04-21 17:30 | -22.26344 | -70.27940 | 27295 ft | 477 kts | 193° |
| 2026-04-21 17:30 | -22.29638 | -70.28459 | 27498 ft | 479 kts | 193° |
| 2026-04-21 17:30 | -22.32902 | -70.28974 | 27698 ft | 480 kts | 193° |
| 2026-04-21 17:30 | -22.36216 | -70.29498 | 27901 ft | 482 kts | 193° |
| 2026-04-21 17:31 | -22.39541 | -70.30024 | 28087 ft | 484 kts | 193° |
| 2026-04-21 17:31 | -22.42887 | -70.30554 | 28280 ft | 486 kts | 193° |
| 2026-04-21 17:31 | -22.46239 | -70.31085 | 28459 ft | 488 kts | 193° |
| 2026-04-21 17:31 | -22.49602 | -70.31618 | 28647 ft | 489 kts | 193° |
| 2026-04-21 17:32 | -22.51837 | -70.31972 | 28777 ft | 491 kts | 194° |
| 2026-04-21 17:32 | -22.56371 | -70.32691 | 28978 ft | 494 kts | 194° |
| 2026-04-21 17:32 | -22.59774 | -70.33232 | 29145 ft | 495 kts | 194° |
| 2026-04-21 17:32 | -22.63189 | -70.33774 | 29327 ft | 497 kts | 194° |
| 2026-04-21 17:33 | -22.66612 | -70.34317 | 29515 ft | 498 kts | 194° |
| 2026-04-21 17:33 | -22.70036 | -70.34861 | 29775 ft | 497 kts | 194° |
| 2026-04-21 17:33 | -22.73456 | -70.35404 | 30054 ft | 496 kts | 194° |
| 2026-04-21 17:33 | -22.76874 | -70.35947 | 30292 ft | 496 kts | 194° |
| 2026-04-21 17:34 | -22.80296 | -70.36492 | 30499 ft | 496 kts | 194° |
| 2026-04-21 17:34 | -22.83669 | -70.37029 | 30740 ft | 496 kts | 194° |
| 2026-04-21 17:34 | -22.87083 | -70.37573 | 31000 ft | 495 kts | 194° |
| 2026-04-21 17:34 | -22.90527 | -70.37963 | 31262 ft | 500 kts | 188° |
| 2026-04-21 17:35 | -22.94010 | -70.38052 | 31529 ft | 501 kts | 186° |
| 2026-04-21 17:35 | -22.97501 | -70.38044 | 31788 ft | 502 kts | 185° |
| 2026-04-21 17:35 | -23.00996 | -70.38007 | 32051 ft | 502 kts | 185° |
| 2026-04-21 17:35 | -23.04485 | -70.37975 | 32335 ft | 501 kts | 186° |
| 2026-04-21 17:36 | -23.07968 | -70.37963 | 32627 ft | 500 kts | 186° |
| 2026-04-21 17:36 | -23.11449 | -70.37970 | 32924 ft | 499 kts | 186° |
| 2026-04-21 17:36 | -23.14922 | -70.37990 | 33248 ft | 499 kts | 187° |
| 2026-04-21 17:36 | -23.18390 | -70.38017 | 33566 ft | 498 kts | 187° |
| 2026-04-21 17:37 | -23.21849 | -70.38047 | 33880 ft | 497 kts | 187° |
| 2026-04-21 17:37 | -23.25309 | -70.38077 | 34142 ft | 497 kts | 187° |
| 2026-04-21 17:37 | -23.27597 | -70.38096 | 34300 ft | 497 kts | 187° |
| 2026-04-21 17:37 | -23.32176 | -70.38134 | 34623 ft | 496 kts | 187° |
| 2026-04-21 17:38 | -23.35628 | -70.38161 | 34863 ft | 496 kts | 187° |
| 2026-04-21 17:38 | -23.39080 | -70.38188 | 35066 ft | 496 kts | 187° |
| 2026-04-21 17:38 | -23.46024 | -70.38242 | 35088 ft | 498 kts | 188° |
| 2026-04-21 17:39 | -23.52936 | -70.38292 | 35075 ft | 495 kts | 188° |
| 2026-04-21 17:39 | -23.59805 | -70.38344 | 35076 ft | 492 kts | 188° |
| 2026-04-21 17:40 | -23.66637 | -70.38398 | 35087 ft | 490 kts | 188° |
| 2026-04-21 17:40 | -23.73459 | -70.38452 | 35087 ft | 490 kts | 188° |
| 2026-04-21 17:41 | -23.80289 | -70.38504 | 35085 ft | 491 kts | 188° |
| 2026-04-21 17:41 | -23.87159 | -70.38344 | 35084 ft | 495 kts | 185° |
| 2026-04-21 17:42 | -23.94061 | -70.38056 | 35087 ft | 497 kts | 185° |
| 2026-04-21 17:42 | -24.00987 | -70.37787 | 35089 ft | 498 kts | 186° |
| 2026-04-21 17:43 | -24.07928 | -70.37546 | 35087 ft | 500 kts | 186° |
| 2026-04-21 17:43 | -24.14896 | -70.37314 | 35076 ft | 501 kts | 186° |
| 2026-04-21 17:44 | -24.21863 | -70.37080 | 35079 ft | 501 kts | 186° |
| 2026-04-21 17:44 | -24.28783 | -70.36846 | 35088 ft | 501 kts | 186° |
| 2026-04-21 17:45 | -24.35747 | -70.36611 | 35099 ft | 502 kts | 186° |
| 2026-04-21 17:45 | -24.42726 | -70.36376 | 35092 ft | 502 kts | 186° |
| 2026-04-21 17:46 | -24.49710 | -70.36139 | 35091 ft | 502 kts | 186° |
| 2026-04-21 17:46 | -24.55506 | -70.35942 | 35075 ft | 501 kts | 186° |
| 2026-04-21 17:47 | -24.62453 | -70.35705 | 35108 ft | 498 kts | 186° |
| 2026-04-21 17:47 | -24.69368 | -70.35471 | 35109 ft | 497 kts | 187° |
| 2026-04-21 17:48 | -24.76285 | -70.35237 | 35097 ft | 498 kts | 187° |
| 2026-04-21 17:48 | -24.83217 | -70.35002 | 35090 ft | 498 kts | 187° |
| 2026-04-21 17:49 | -24.90158 | -70.34768 | 35087 ft | 499 kts | 187° |
| 2026-04-21 17:49 | -24.97128 | -70.34534 | 35106 ft | 501 kts | 187° |
| 2026-04-21 17:50 | -25.04072 | -70.34301 | 35100 ft | 502 kts | 187° |
| 2026-04-21 17:50 | -25.11056 | -70.34064 | 35098 ft | 503 kts | 187° |
| 2026-04-21 17:51 | -25.18059 | -70.33827 | 35091 ft | 503 kts | 187° |
| 2026-04-21 17:51 | -25.25066 | -70.33589 | 35094 ft | 503 kts | 187° |
| 2026-04-21 17:52 | -25.32019 | -70.33353 | 35096 ft | 503 kts | 187° |
| 2026-04-21 17:52 | -25.39014 | -70.33115 | 35082 ft | 502 kts | 187° |
| 2026-04-21 17:53 | -25.46045 | -70.32875 | 35075 ft | 501 kts | 187° |
| 2026-04-21 17:53 | -25.52966 | -70.32640 | 35095 ft | 501 kts | 188° |
| 2026-04-21 17:54 | -25.59936 | -70.32403 | 35086 ft | 501 kts | 188° |
| 2026-04-21 17:54 | -25.66905 | -70.32166 | 35080 ft | 501 kts | 188° |
| 2026-04-21 17:55 | -25.73871 | -70.31928 | 35060 ft | 501 kts | 188° |
| 2026-04-21 17:55 | -25.80834 | -70.31690 | 35092 ft | 500 kts | 188° |
| 2026-04-21 17:56 | -25.87794 | -70.31452 | 35070 ft | 500 kts | 188° |
| 2026-04-21 17:56 | -25.94747 | -70.31213 | 35054 ft | 500 kts | 188° |
| 2026-04-21 17:57 | -26.01693 | -70.30975 | 35068 ft | 499 kts | 188° |
| 2026-04-21 17:57 | -26.08620 | -70.30842 | 35082 ft | 493 kts | 193° |
| 2026-04-21 17:58 | -26.15421 | -70.31422 | 35070 ft | 489 kts | 197° |
| 2026-04-21 17:58 | -26.22211 | -70.32169 | 35061 ft | 491 kts | 196° |
| 2026-04-21 17:59 | -26.28988 | -70.32859 | 35057 ft | 493 kts | 195° |
| 2026-04-21 17:59 | -26.35831 | -70.33501 | 35060 ft | 494 kts | 195° |
| 2026-04-21 18:00 | -26.42684 | -70.34132 | 35073 ft | 494 kts | 196° |
| 2026-04-21 18:00 | -26.49528 | -70.34764 | 35069 ft | 492 kts | 196° |
| 2026-04-21 18:01 | -26.56348 | -70.35397 | 35073 ft | 491 kts | 196° |
| 2026-04-21 18:01 | -26.63160 | -70.36035 | 35067 ft | 491 kts | 196° |
| 2026-04-21 18:02 | -26.69958 | -70.36670 | 35099 ft | 490 kts | 196° |
| 2026-04-21 18:02 | -26.76760 | -70.37306 | 35038 ft | 489 kts | 197° |
| 2026-04-21 18:03 | -26.83466 | -70.37931 | 35058 ft | 482 kts | 197° |
| 2026-04-21 18:03 | -26.90197 | -70.38569 | 35084 ft | 489 kts | 196° |
| 2026-04-21 18:04 | -26.97025 | -70.39212 | 35083 ft | 493 kts | 196° |
| 2026-04-21 18:04 | -27.03884 | -70.39849 | 35073 ft | 495 kts | 196° |
| 2026-04-21 18:05 | -27.10755 | -70.40486 | 35078 ft | 495 kts | 196° |
| 2026-04-21 18:05 | -27.17622 | -70.41123 | 35071 ft | 496 kts | 196° |
| 2026-04-21 18:06 | -27.24498 | -70.41763 | 35075 ft | 495 kts | 196° |
| 2026-04-21 18:06 | -27.31346 | -70.42400 | 35082 ft | 493 kts | 196° |
| 2026-04-21 18:07 | -27.38140 | -70.43034 | 35091 ft | 492 kts | 196° |
| 2026-04-21 18:07 | -27.44971 | -70.43674 | 35076 ft | 492 kts | 196° |
| 2026-04-21 18:08 | -27.51783 | -70.44312 | 35075 ft | 491 kts | 197° |
| 2026-04-21 18:08 | -27.58581 | -70.44948 | 35087 ft | 489 kts | 197° |
| 2026-04-21 18:09 | -27.65370 | -70.45586 | 35068 ft | 489 kts | 197° |
| 2026-04-21 18:09 | -27.72144 | -70.46223 | 35074 ft | 488 kts | 197° |
| 2026-04-21 18:10 | -27.78907 | -70.46860 | 35090 ft | 488 kts | 197° |
| 2026-04-21 18:10 | -27.85684 | -70.47500 | 35103 ft | 489 kts | 197° |
| 2026-04-21 18:11 | -27.92436 | -70.48138 | 35090 ft | 490 kts | 197° |
| 2026-04-21 18:11 | -27.99229 | -70.48779 | 35075 ft | 490 kts | 197° |
| 2026-04-21 18:12 | -28.06033 | -70.49421 | 35083 ft | 490 kts | 197° |
| 2026-04-21 18:12 | -28.12839 | -70.50066 | 35104 ft | 490 kts | 197° |
| 2026-04-21 18:13 | -28.19631 | -70.50710 | 35083 ft | 489 kts | 197° |
| 2026-04-21 18:13 | -28.26409 | -70.51352 | 35084 ft | 488 kts | 197° |
| 2026-04-21 18:14 | -28.36516 | -70.52314 | 35090 ft | 487 kts | 197° |
| 2026-04-21 18:15 | -28.43281 | -70.52959 | 35094 ft | 487 kts | 197° |
| 2026-04-21 18:15 | -28.50027 | -70.53600 | 35106 ft | 485 kts | 197° |
| 2026-04-21 18:16 | -28.56754 | -70.54239 | 35100 ft | 484 kts | 197° |
| 2026-04-21 18:16 | -28.63479 | -70.54877 | 35089 ft | 485 kts | 197° |
| 2026-04-21 18:17 | -28.70212 | -70.55516 | 35112 ft | 486 kts | 197° |
| 2026-04-21 18:17 | -28.76905 | -70.56152 | 35099 ft | 485 kts | 197° |
| 2026-04-21 18:18 | -28.83631 | -70.56791 | 35086 ft | 484 kts | 197° |
| 2026-04-21 18:18 | -28.90333 | -70.57430 | 35108 ft | 483 kts | 197° |
| 2026-04-21 18:19 | -28.97036 | -70.58072 | 35130 ft | 483 kts | 197° |
| 2026-04-21 18:19 | -29.03720 | -70.58712 | 35108 ft | 481 kts | 198° |
| 2026-04-21 18:20 | -29.10380 | -70.59352 | 35141 ft | 480 kts | 198° |
| 2026-04-21 18:20 | -29.17015 | -70.59995 | 35138 ft | 483 kts | 198° |
| 2026-04-21 18:21 | -29.23728 | -70.60644 | 35166 ft | 484 kts | 197° |
| 2026-04-21 18:21 | -29.30444 | -70.61291 | 35143 ft | 485 kts | 198° |
| 2026-04-21 18:22 | -29.37184 | -70.61944 | 35133 ft | 486 kts | 198° |
| 2026-04-21 18:22 | -29.43915 | -70.62591 | 35139 ft | 483 kts | 198° |
| 2026-04-21 18:23 | -29.50621 | -70.63240 | 35140 ft | 484 kts | 198° |
| 2026-04-21 18:23 | -29.57337 | -70.63894 | 35133 ft | 484 kts | 198° |
| 2026-04-21 18:24 | -29.64044 | -70.64545 | 35129 ft | 483 kts | 198° |
| 2026-04-21 18:24 | -29.70726 | -70.65192 | 35118 ft | 479 kts | 198° |
| 2026-04-21 18:25 | -29.77316 | -70.65833 | 35123 ft | 478 kts | 198° |
| 2026-04-21 18:25 | -29.83935 | -70.66481 | 35135 ft | 477 kts | 198° |
| 2026-04-21 18:26 | -29.90556 | -70.67131 | 35125 ft | 476 kts | 198° |
| 2026-04-21 18:26 | -29.97137 | -70.67771 | 35097 ft | 474 kts | 198° |
| 2026-04-21 18:27 | -30.03714 | -70.68419 | 35117 ft | 475 kts | 198° |
| 2026-04-21 18:27 | -30.10342 | -70.69074 | 35130 ft | 480 kts | 198° |
| 2026-04-21 18:28 | -30.17027 | -70.69732 | 35124 ft | 483 kts | 198° |
| 2026-04-21 18:28 | -30.23731 | -70.70390 | 35122 ft | 484 kts | 198° |
| 2026-04-21 18:29 | -30.30410 | -70.71044 | 35125 ft | 484 kts | 198° |
| 2026-04-21 18:29 | -30.37115 | -70.71704 | 35145 ft | 484 kts | 198° |
| 2026-04-21 18:30 | -30.43827 | -70.72367 | 35135 ft | 483 kts | 198° |
| 2026-04-21 18:30 | -30.50506 | -70.73026 | 35136 ft | 481 kts | 198° |
| 2026-04-21 18:31 | -30.57166 | -70.73687 | 35138 ft | 479 kts | 198° |
| 2026-04-21 18:31 | -30.63803 | -70.74340 | 35141 ft | 478 kts | 198° |
| 2026-04-21 18:32 | -30.69301 | -70.74875 | 35108 ft | 477 kts | 198° |
| 2026-04-21 18:32 | -30.75934 | -70.75523 | 35102 ft | 476 kts | 198° |
| 2026-04-21 18:33 | -30.82517 | -70.76164 | 35102 ft | 474 kts | 198° |
| 2026-04-21 18:33 | -30.90147 | -70.76913 | 35144 ft | 473 kts | 198° |
| 2026-04-21 18:34 | -30.95654 | -70.77457 | 35116 ft | 474 kts | 198° |
| 2026-04-21 18:34 | -31.02213 | -70.78101 | 35097 ft | 472 kts | 197° |
| 2026-04-21 18:35 | -31.08674 | -70.78734 | 35153 ft | 470 kts | 198° |
| 2026-04-21 18:35 | -31.15262 | -70.79394 | 35146 ft | 478 kts | 198° |
| 2026-04-21 18:36 | -31.21907 | -70.80047 | 35139 ft | 481 kts | 197° |
| 2026-04-21 18:36 | -31.28589 | -70.80705 | 35130 ft | 482 kts | 197° |
| 2026-04-21 18:37 | -31.35269 | -70.81363 | 35157 ft | 481 kts | 197° |
| 2026-04-21 18:37 | -31.38618 | -70.81694 | 34940 ft | 486 kts | 197° |
| 2026-04-21 18:37 | -31.42019 | -70.82036 | 34294 ft | 491 kts | 197° |
| 2026-04-21 18:37 | -31.45404 | -70.82366 | 33747 ft | 485 kts | 196° |
| 2026-04-21 18:38 | -31.48752 | -70.82688 | 32836 ft | 485 kts | 196° |
| 2026-04-21 18:38 | -31.52095 | -70.83019 | 31996 ft | 484 kts | 195° |
| 2026-04-21 18:38 | -31.55400 | -70.83333 | 31778 ft | 470 kts | 195° |
| 2026-04-21 18:38 | -31.58689 | -70.83656 | 30998 ft | 472 kts | 194° |
| 2026-04-21 18:39 | -31.61947 | -70.83981 | 30366 ft | 468 kts | 194° |
| 2026-04-21 18:39 | -31.65172 | -70.84302 | 29765 ft | 462 kts | 193° |
| 2026-04-21 18:39 | -31.68357 | -70.84617 | 29196 ft | 457 kts | 193° |
| 2026-04-21 18:39 | -31.71507 | -70.84929 | 28623 ft | 452 kts | 194° |
| 2026-04-21 18:40 | -31.74621 | -70.85237 | 28094 ft | 446 kts | 193° |
| 2026-04-21 18:40 | -31.77712 | -70.85399 | 27762 ft | 442 kts | 188° |
| 2026-04-21 18:40 | -31.79733 | -70.85360 | 27582 ft | 437 kts | 187° |
| 2026-04-21 18:40 | -31.83753 | -70.85150 | 27160 ft | 428 kts | 186° |
| 2026-04-21 18:41 | -31.86723 | -70.84976 | 26636 ft | 424 kts | 186° |
| 2026-04-21 18:41 | -31.89654 | -70.84821 | 26148 ft | 420 kts | 186° |
| 2026-04-21 18:41 | -31.92561 | -70.84690 | 25634 ft | 417 kts | 186° |
| 2026-04-21 18:41 | -31.95445 | -70.84575 | 25152 ft | 414 kts | 186° |
| 2026-04-21 18:42 | -31.98321 | -70.84470 | 24619 ft | 412 kts | 186° |
| 2026-04-21 18:42 | -32.01145 | -70.84371 | 24135 ft | 409 kts | 186° |
| 2026-04-21 18:42 | -32.03993 | -70.84273 | 23585 ft | 409 kts | 186° |
| 2026-04-21 18:42 | -32.06832 | -70.84174 | 23011 ft | 407 kts | 186° |
| 2026-04-21 18:43 | -32.09651 | -70.84074 | 22469 ft | 403 kts | 185° |
| 2026-04-21 18:43 | -32.12431 | -70.83974 | 21980 ft | 398 kts | 185° |
| 2026-04-21 18:43 | -32.15191 | -70.83876 | 21478 ft | 395 kts | 185° |
| 2026-04-21 18:43 | -32.17929 | -70.83778 | 20977 ft | 391 kts | 185° |
| 2026-04-21 18:44 | -32.20637 | -70.83681 | 20513 ft | 388 kts | 185° |
| 2026-04-21 18:44 | -32.23331 | -70.83586 | 20037 ft | 386 kts | 185° |
| 2026-04-21 18:44 | -32.25975 | -70.83534 | 19835 ft | 373 kts | 190° |
| 2026-04-21 18:44 | -32.28439 | -70.84193 | 19588 ft | 356 kts | 209° |
| 2026-04-21 18:45 | -32.30567 | -70.85636 | 19363 ft | 352 kts | 224° |
| 2026-04-21 18:45 | -32.32307 | -70.87647 | 19117 ft | 349 kts | 237° |
| 2026-04-21 18:45 | -32.33553 | -70.90084 | 18884 ft | 345 kts | 250° |
| 2026-04-21 18:45 | -32.34201 | -70.92783 | 18670 ft | 340 kts | 265° |
| 2026-04-21 18:46 | -32.34216 | -70.95521 | 18453 ft | 338 kts | 279° |
| 2026-04-21 18:46 | -32.33614 | -70.98196 | 18182 ft | 338 kts | 293° |
| 2026-04-21 18:46 | -32.32436 | -71.00597 | 17927 ft | 339 kts | 307° |
| 2026-04-21 18:46 | -32.30758 | -71.02563 | 17676 ft | 342 kts | 321° |
| 2026-04-21 18:47 | -32.28713 | -71.04011 | 17417 ft | 344 kts | 332° |
| 2026-04-21 18:47 | -32.26425 | -71.04876 | 17143 ft | 348 kts | 347° |
| 2026-04-21 18:47 | -32.24012 | -71.05116 | 16887 ft | 348 kts | 353° |
| 2026-04-21 18:47 | -32.21596 | -71.05198 | 16631 ft | 346 kts | 354° |
| 2026-04-21 18:48 | -32.19190 | -71.05255 | 16409 ft | 345 kts | 355° |
| 2026-04-21 18:48 | -32.16807 | -71.05322 | 16284 ft | 340 kts | 354° |
| 2026-04-21 18:48 | -32.14456 | -71.05406 | 16202 ft | 335 kts | 354° |
| 2026-04-21 18:48 | -32.12123 | -71.05500 | 16136 ft | 337 kts | 354° |
| 2026-04-21 18:49 | -32.09772 | -71.05597 | 16152 ft | 340 kts | 355° |
| 2026-04-21 18:49 | -32.07397 | -71.05265 | 16124 ft | 349 kts | 13° |
| 2026-04-21 18:49 | -32.05899 | -71.04552 | 16131 ft | 353 kts | 23° |
| 2026-04-21 18:49 | -32.03220 | -71.02254 | 16119 ft | 361 kts | 41° |
| 2026-04-21 18:50 | -32.01691 | -70.99890 | 16111 ft | 368 kts | 57° |
| 2026-04-21 18:50 | -32.00768 | -70.97109 | 16127 ft | 374 kts | 74° |
| 2026-04-21 18:50 | -32.00565 | -70.94039 | 16097 ft | 380 kts | 94° |
| 2026-04-21 18:50 | -32.01155 | -70.91010 | 16131 ft | 382 kts | 111° |
| 2026-04-21 18:51 | -32.02482 | -70.88299 | 16114 ft | 383 kts | 130° |
| 2026-04-21 18:51 | -32.04434 | -70.86169 | 16123 ft | 383 kts | 148° |
| 2026-04-21 18:51 | -32.06794 | -70.84739 | 16116 ft | 382 kts | 163° |
| 2026-04-21 18:51 | -32.09372 | -70.84110 | 16128 ft | 376 kts | 180° |
| 2026-04-21 18:52 | -32.11989 | -70.83970 | 16118 ft | 377 kts | 182° |
| 2026-04-21 18:52 | -32.14614 | -70.83906 | 16124 ft | 378 kts | 183° |
| 2026-04-21 18:52 | -32.17252 | -70.83841 | 16117 ft | 379 kts | 182° |
| 2026-04-21 18:52 | -32.19890 | -70.83751 | 16117 ft | 379 kts | 182° |
| 2026-04-21 18:53 | -32.22530 | -70.83643 | 16132 ft | 380 kts | 182° |
| 2026-04-21 18:53 | -32.25175 | -70.83527 | 16127 ft | 380 kts | 182° |
| 2026-04-21 18:53 | -32.27822 | -70.83420 | 15880 ft | 381 kts | 182° |
| 2026-04-21 18:53 | -32.30433 | -70.83324 | 15618 ft | 377 kts | 182° |
| 2026-04-21 18:54 | -32.33045 | -70.83232 | 15392 ft | 375 kts | 182° |
| 2026-04-21 18:54 | -32.35655 | -70.83142 | 15163 ft | 375 kts | 182° |
| 2026-04-21 18:54 | -32.38264 | -70.83052 | 14918 ft | 376 kts | 181° |
| 2026-04-21 18:54 | -32.40877 | -70.82959 | 14686 ft | 376 kts | 181° |
| 2026-04-21 18:55 | -32.42648 | -70.82896 | 14535 ft | 377 kts | 181° |
| 2026-04-21 18:55 | -32.46126 | -70.82771 | 14219 ft | 378 kts | 181° |
| 2026-04-21 18:55 | -32.48756 | -70.82675 | 14008 ft | 379 kts | 181° |
| 2026-04-21 18:55 | -32.51395 | -70.82580 | 13768 ft | 381 kts | 181° |
| 2026-04-21 18:56 | -32.54039 | -70.82485 | 13485 ft | 379 kts | 180° |
| 2026-04-21 18:56 | -32.56655 | -70.82390 | 13215 ft | 373 kts | 180° |
| 2026-04-21 18:56 | -32.59226 | -70.82295 | 12933 ft | 367 kts | 180° |
| 2026-04-21 18:56 | -32.61763 | -70.82202 | 12681 ft | 362 kts | 180° |
| 2026-04-21 18:57 | -32.64267 | -70.82112 | 12427 ft | 358 kts | 180° |
| 2026-04-21 18:57 | -32.66738 | -70.82022 | 12121 ft | 351 kts | 179° |
| 2026-04-21 18:57 | -32.69143 | -70.81937 | 11908 ft | 342 kts | 180° |
| 2026-04-21 18:57 | -32.71500 | -70.81852 | 11660 ft | 335 kts | 180° |
| 2026-04-21 18:58 | -32.73806 | -70.81768 | 11391 ft | 328 kts | 181° |
| 2026-04-21 18:58 | -32.76061 | -70.81685 | 11143 ft | 320 kts | 180° |
| 2026-04-21 18:58 | -32.78270 | -70.81605 | 10911 ft | 315 kts | 180° |
| 2026-04-21 18:58 | -32.80449 | -70.81526 | 10659 ft | 312 kts | 180° |
| 2026-04-21 18:59 | -32.82656 | -70.81448 | 10118 ft | 322 kts | 180° |
| 2026-04-21 18:59 | -32.84894 | -70.81367 | 9882 ft | 317 kts | 180° |
| 2026-04-21 18:59 | -32.87066 | -70.81287 | 9513 ft | 316 kts | 180° |
| 2026-04-21 18:59 | -32.89291 | -70.81207 | 9032 ft | 320 kts | 180° |
| 2026-04-21 19:00 | -32.91494 | -70.81128 | 8615 ft | 321 kts | 180° |
| 2026-04-21 19:00 | -32.93715 | -70.81243 | 8261 ft | 319 kts | 188° |
| 2026-04-21 19:00 | -32.95902 | -70.81612 | 7917 ft | 316 kts | 190° |
| 2026-04-21 19:00 | -32.98075 | -70.81990 | 7574 ft | 315 kts | 189° |
| 2026-04-21 19:01 | -33.00238 | -70.82342 | 7232 ft | 313 kts | 188° |
| 2026-04-21 19:01 | -33.02406 | -70.82436 | 6882 ft | 312 kts | 178° |
| 2026-04-21 19:01 | -33.04563 | -70.82293 | 6556 ft | 309 kts | 176° |
| 2026-04-21 19:01 | -33.06694 | -70.82104 | 6305 ft | 303 kts | 176° |
| 2026-04-21 19:02 | -33.08760 | -70.81916 | 6310 ft | 286 kts | 177° |
| 2026-04-21 19:02 | -33.10670 | -70.81787 | 6305 ft | 268 kts | 178° |
| 2026-04-21 19:02 | -33.12444 | -70.81690 | 6236 ft | 242 kts | 178° |
| 2026-04-21 19:02 | -33.14051 | -70.81605 | 5989 ft | 222 kts | 179° |
| 2026-04-21 19:03 | -33.15531 | -70.81528 | 5765 ft | 202 kts | 179° |
| 2026-04-21 19:03 | -33.16871 | -70.81456 | 5463 ft | 185 kts | 179° |
| 2026-04-21 19:03 | -33.18086 | -70.81390 | 5257 ft | 169 kts | 179° |
| 2026-04-21 19:03 | -33.19265 | -70.81330 | 5019 ft | 168 kts | 179° |
| 2026-04-21 19:04 | -33.20403 | -70.81270 | 4814 ft | 160 kts | 179° |
| 2026-04-21 19:04 | -33.21499 | -70.81212 | 4600 ft | 158 kts | 179° |
| 2026-04-21 19:04 | -33.22605 | -70.81153 | 4406 ft | 161 kts | 178° |
| 2026-04-21 19:04 | -33.23701 | -70.81094 | 4186 ft | 159 kts | 179° |
| 2026-04-21 19:05 | -33.24790 | -70.81036 | 3977 ft | 155 kts | 178° |
| 2026-04-21 19:05 | -33.25864 | -70.80978 | 3783 ft | 154 kts | 178° |
| 2026-04-21 19:05 | -33.26936 | -70.80922 | 3572 ft | 153 kts | 178° |
| 2026-04-21 19:05 | -33.27993 | -70.80865 | 3375 ft | 150 kts | 179° |
| 2026-04-21 19:06 | -33.29024 | -70.80809 | 3184 ft | 147 kts | 179° |
| 2026-04-21 19:06 | -33.30051 | -70.80756 | 2986 ft | 146 kts | 179° |
| 2026-04-21 19:06 | -33.31061 | -70.80699 | 2792 ft | 145 kts | 178° |
| 2026-04-21 19:06 | -33.32082 | -70.80646 | 2582 ft | 148 kts | 178° |
| 2026-04-21 19:07 | -33.33097 | -70.80594 | 2386 ft | 144 kts | 178° |
| 2026-04-21 19:07 | -33.34072 | -70.80542 | 2199 ft | 138 kts | 177° |
| 2026-04-21 19:07 | -33.35033 | -70.80489 | 2024 ft | 139 kts | 177° |
| 2026-04-21 19:07 | -33.36006 | -70.80437 | 1850 ft | 141 kts | 177° |
| 2026-04-21 19:08 | -33.36988 | -70.80385 | 1672 ft | 141 kts | 176° |
| 2026-04-21 19:08 | -33.37930 | -70.80333 | 1572 ft | 123 kts | 178° |
| 2026-04-21 19:08 | -33.38568 | -70.80300 | 1572 ft | 61 kts | 177° |
| 2026-04-21 19:08 | -33.38808 | -70.80287 | 1573 ft | 24 kts | 178° |
| 2026-04-21 19:09 | -33.38966 | -70.80278 | 1573 ft | 21 kts | 177° |
| 2026-04-21 19:09 | -33.39107 | -70.80270 | 1572 ft | 19 kts | 176° |
| 2026-04-21 19:09 | -33.39224 | -70.80250 | 1571 ft | 15 kts | 167° |
| 2026-04-21 19:09 | -33.39320 | -70.80204 | 1570 ft | 14 kts | 153° |
| 2026-04-21 19:10 | -33.39388 | -70.80155 | 1568 ft | 10 kts | 148° |
| 2026-04-21 19:10 | -33.39452 | -70.80108 | 1566 ft | 11 kts | 147° |
| 2026-04-21 19:10 | -33.39511 | -70.80046 | 1565 ft | 11 kts | 126° |
| 2026-04-21 19:10 | -33.39530 | -70.79960 | 1564 ft | 11 kts | 92° |
| 2026-04-21 19:11 | -33.39528 | -70.79875 | 1564 ft | 10 kts | 89° |
| 2026-04-21 19:11 | -33.39526 | -70.79799 | 1564 ft | 9 kts | 87° |
| 2026-04-21 19:11 | -33.39523 | -70.79728 | 1564 ft | 8 kts | 87° |
| 2026-04-21 19:11 | -33.39521 | -70.79666 | 1563 ft | 7 kts | 87° |
| 2026-04-21 19:12 | -33.39519 | -70.79628 | 1563 ft | 7 kts | 87° |
| 2026-04-21 19:12 | -33.39515 | -70.79556 | 1563 ft | 6 kts | 86° |
| 2026-04-21 19:12 | -33.39513 | -70.79503 | 1563 ft | 6 kts | 86° |
| 2026-04-21 19:12 | -33.39525 | -70.79461 | 1563 ft | 5 kts | 161° |
| 2026-04-21 19:13 | -33.39551 | -70.79456 | 1563 ft | 3 kts | 175° |
| 2026-04-21 19:13 | -33.39574 | -70.79454 | 1563 ft | 3 kts | 176° |
| 2026-04-21 19:13 | -33.39592 | -70.79453 | 1563 ft | 2 kts | 178° |
| 2026-04-21 19:13 | -33.39597 | -70.79453 | 1563 ft | 0 kts | 178° |